IPLVEN5 History tables / reports. Script index.php

Sélectionnez une autre période ( cacher cette zone )

Les unités Période Période personnalisée Directement à
métriques impériales les deux
par jour par semaine mensuel annuel
utiliser les deux sélecteurs de date pour une période personnalisée
précédent Jour
Avec cette date

Les graphiques de WeatherUnderground pour cette période ( cliquez ici ) Le chargement du graphique peut prendre jusqu'à une minute!


par jour Résumé pour Vendredi 21 Jan 2022
Heure Temp. ( °C ) Pt. de rosée ( °C ) Vent ( km/h ) Direction Rafale ( km/h ) Pression baro ( hPa ) Humid.( % ) Intensité ( mm ) Solaire ( W/m2 )
Élevé6,7 3,6 28,0 ENE ( 1836/3008 ) 39,0 1031,9 83 - 81.1
Moyenne6,0 2,6 16,7 ENE #109/180 22,9 1030,6 79 - 50 #75/180
Basse5,5 1,1 10,0   11,0 1029,6 72 -  
par jour Détails du tableau pour Vendredi 21 Jan 2022
Heure Temp. ( °C ) Pt. de rosée ( °C ) Vent ( km/h ) Direction Rafale ( km/h ) Pression baro ( hPa ) Humid.( % ) Intensité ( mm ) Solaire ( W/m2 )
00:04 5,7 2,0 17,0 NE 24,0 1029,8 77 - -
00:09 5,7 1,8 18,0 NE 26,0 1029,7 76 - -
00:14 5,7 1,8 18,0 NE 26,0 1029,7 76 - -
00:19 5,8 1,9 24,0 ENE 30,0 1029,7 76 - -
00:24 5,8 1,9 20,0 NE 33,0 1029,9 76 - -
00:29 5,8 1,9 21,0 NE 30,0 1029,9 76 - -
00:34 5,8 1,9 20,0 NE 28,0 1029,9 76 - -
00:39 5,8 2,1 19,0 NE 26,0 1029,9 77 - -
00:44 5,8 2,1 22,0 NE 28,0 1029,8 77 - -
00:49 5,8 1,9 21,0 ENE 33,0 1029,9 76 - -
00:54 5,8 1,7 19,0 ENE 26,0 1029,9 75 - -
00:59 5,8 1,9 27,0 NE 39,0 1029,8 76 - -
01:04 5,8 1,9 23,0 ENE 33,0 1030,0 76 - -
01:09 5,8 2,1 25,0 ENE 30,0 1029,8 77 - -
01:14 5,9 2,2 28,0 ENE 39,0 1029,9 77 - -
01:19 5,9 2,2 26,0 NE 35,0 1029,9 77 - -
01:24 5,9 2,2 28,0 NE 37,0 1029,9 77 - -
01:29 5,9 2,4 20,0 ENE 30,0 1030,0 78 - -
01:34 5,9 2,4 25,0 ENE 30,0 1029,9 78 - -
01:39 5,9 2,4 22,0 ENE 30,0 1030,0 78 - -
01:44 5,9 2,2 23,0 NE 33,0 1030,1 77 - -
01:49 5,9 2,2 19,0 ENE 26,0 1029,8 77 - -
01:54 5,9 2,4 20,0 ENE 26,0 1029,9 78 - -
01:59 5,8 2,1 22,0 ENE 26,0 1029,7 77 - -
02:04 5,8 1,9 17,0 ENE 30,0 1029,9 76 - -
02:09 5,8 1,9 21,0 ENE 26,0 1029,8 76 - -
02:14 5,8 1,7 18,0 ENE 26,0 1029,8 75 - -
02:19 5,8 1,7 23,0 ENE 28,0 1029,9 75 - -
02:24 5,7 1,4 21,0 ENE 28,0 1029,8 74 - -
02:29 5,7 1,1 22,0 ENE 28,0 1029,8 72 - -
02:34 5,7 1,1 22,0 ENE 30,0 1029,8 72 - -
02:39 5,7 1,1 16,0 NE 24,0 1029,8 72 - -
02:44 5,7 1,2 16,0 ENE 24,0 1029,7 73 - -
02:49 5,7 1,2 18,0 ENE 24,0 1029,8 73 - -
02:54 5,7 1,2 17,0 ENE 22,0 1029,9 73 - -
02:59 5,8 1,5 15,0 ENE 24,0 1029,6 74 - -
03:04 5,8 1,5 18,0 ENE 24,0 1029,8 74 - -
03:09 5,8 1,5 16,0 ENE 22,0 1029,8 74 - -
03:14 5,7 1,4 19,0 ENE 24,0 1029,9 74 - -
03:19 5,7 1,4 22,0 ENE 30,0 1029,9 74 - -
03:24 5,7 1,8 16,0 ENE 24,0 1030,0 76 - -
03:29 5,7 1,8 19,0 NE 26,0 1029,9 76 - -
03:34 5,7 1,8 13,0 ENE 20,0 1029,9 76 - -
03:39 5,7 1,8 16,0 NE 22,0 1029,9 76 - -
03:44 5,7 1,8 13,0 ENE 18,0 1029,8 76 - -
03:49 5,7 1,8 12,0 NE 18,0 1029,9 76 - -
03:54 5,7 1,8 10,0 NE 15,0 1029,7 76 - -
03:59 5,6 1,9 16,0 NE 26,0 1029,7 77 - -
04:04 5,7 1,8 19,0 NE 24,0 1029,8 76 - -
04:09 5,7 1,8 15,0 NE 24,0 1029,7 76 - -
04:14 5,7 2,0 19,0 ENE 24,0 1029,6 77 - -
04:19 5,7 2,0 19,0 ENE 24,0 1029,7 77 - -
04:24 5,7 2,0 16,0 NE 22,0 1029,7 77 - -
04:29 5,7 2,2 18,0 ENE 24,0 1029,6 78 - -
04:34 5,8 2,4 20,0 NE 28,0 1029,7 79 - -
04:39 5,8 2,4 23,0 ENE 28,0 1029,7 79 - -
04:44 5,7 2,7 20,0 ENE 30,0 1029,7 81 - -
04:49 5,7 2,7 21,0 ENE 24,0 1029,7 81 - -
04:54 5,7 2,7 20,0 ENE 22,0 1029,6 81 - -
04:59 5,6 2,4 18,0 NE 24,0 1029,7 80 - -
05:04 5,6 2,4 18,0 ENE 26,0 1029,7 80 - -
05:09 5,6 2,4 13,0 ENE 17,0 1029,8 80 - -
05:14 5,5 2,5 18,0 ENE 24,0 1029,8 81 - -
05:19 5,5 2,7 15,0 NE 20,0 1029,8 82 - -
05:24 5,6 2,7 20,0 NE 24,0 1029,9 82 - -
05:29 5,6 2,6 18,0 NE 24,0 1029,9 81 - -
05:34 5,7 2,5 16,0 NE 20,0 1029,9 80 - -
05:39 5,7 2,5 14,0 ENE 20,0 1029,6 80 - -
05:44 5,7 2,7 14,0 ENE 20,0 1029,7 81 - -
05:49 5,7 2,5 17,0 ENE 22,0 1029,6 80 - -
05:54 5,7 2,5 14,0 ENE 20,0 1029,8 80 - -
05:59 5,7 2,5 13,0 ENE 18,0 1029,8 80 - -
06:04 5,7 2,7 23,0 ENE 30,0 1029,7 81 - -
06:09 5,7 2,7 23,0 ENE 30,0 1029,8 81 - -
06:14 5,7 2,7 15,0 Est 20,0 1029,9 81 - -
06:19 5,6 2,6 15,0 ENE 18,0 1029,8 81 - -
06:24 5,5 2,5 13,0 ENE 17,0 1029,9 81 - -
06:29 5,5 2,5 12,0 ENE 17,0 1029,9 81 - -
06:34 5,5 2,7 12,0 ENE 15,0 1029,9 82 - -
06:39 5,6 2,8 13,0 Est 17,0 1029,9 82 - -
06:44 5,6 2,8 13,0 ENE 15,0 1029,8 82 - -
06:49 5,7 2,9 13,0 ENE 15,0 1030,0 82 - -
06:54 5,7 2,9 13,0 ENE 17,0 1030,1 82 - -
06:59 5,7 3,0 17,0 ENE 20,0 1030,1 83 - -
07:04 5,7 3,0 21,0 NE 26,0 1030,3 83 - -
07:09 5,7 2,9 23,0 NE 30,0 1030,2 82 - -
07:14 5,7 2,9 21,0 ENE 30,0 1030,3 82 - -
07:19 5,7 2,9 20,0 ENE 26,0 1030,4 82 - -
07:24 5,7 2,9 19,0 ENE 26,0 1030,2 82 - -
07:29 5,6 2,8 20,0 ENE 26,0 1030,1 82 - -
07:34 5,6 2,8 27,0 NE 35,0 1030,4 82 - -
07:39 5,6 2,8 26,0 NE 33,0 1030,4 82 - -
07:44 5,6 2,8 24,0 ENE 31,0 1030,4 82 - -
07:49 5,6 2,6 24,0 ENE 39,0 1030,5 81 - -
07:54 5,7 2,8 24,0 ENE 39,0 1030,6 82 - -
07:59 5,7 2,9 13,0 Est 26,0 1030,5 82 - -
08:04 5,7 2,9 17,0 ENE 26,0 1030,7 82 - -
08:09 5,7 2,9 16,0 ENE 24,0 1030,9 82 - -
08:14 5,7 2,9 16,0 ENE 24,0 1030,9 82 - -
08:19 5,6 2,9 13,0 NE 18,0 1030,7 83 - -
08:24 5,6 2,9 15,0 NE 20,0 1030,8 83 - -
08:29 5,6 2,8 15,0 ENE 20,0 1030,9 82 - -
08:34 5,6 2,8 12,0 NE 18,0 1030,9 82 - -
08:39 5,6 2,8 20,0 NE 24,0 1030,9 82 - -
08:44 5,6 2,8 16,0 ENE 24,0 1030,9 82 - -
08:49 5,6 2,8 14,0 ENE 20,0 1031,0 82 - 1
08:54 5,6 2,8 15,0 ENE 22,0 1030,9 82 - 1
08:59 5,7 2,9 14,0 ENE 22,0 1030,9 82 - 2.1
09:04 5,7 2,9 11,0 ENE 18,0 1031,1 82 - 3.1
09:09 5,7 2,9 16,0 ENE 20,0 1031,1 82 - 3.1
09:14 5,7 2,9 17,0 ENE 30,0 1031,1 82 - 4.2
09:19 5,8 2,9 13,0 ENE 18,0 1031,2 82 - 8.3
09:24 5,8 2,8 19,0 NE 24,0 1031,2 81 - 8.3
09:29 5,8 2,8 14,0 NE 17,0 1031,3 81 - 12.5
09:34 5,9 2,9 13,0 NE 17,0 1031,3 81 - 17.6
09:39 5,9 2,9 16,0 ENE 24,0 1031,3 81 - 23.9
09:44 6,0 2,7 17,0 ENE 18,0 1031,3 80 - 27
09:49 6,0 2,6 15,0 ENE 17,0 1031,2 79 - 22.9
09:54 6,0 2,3 14,0 ENE 18,0 1031,4 77 - 17.6
09:59 6,0 2,1 14,0 ENE 20,0 1031,3 76 - 23.9
10:04 6,0 2,3 18,0 ENE 26,0 1031,3 77 - 18.7
10:09 6,1 2,6 17,0 NE 26,0 1031,4 78 - 25
10:14 6,2 2,8 17,0 NE 22,0 1031,3 79 - 40.5
10:19 6,3 2,9 19,0 ENE 28,0 1031,4 79 - 67.6
10:24 6,4 3,2 19,0 NE 28,0 1031,6 80 - 69.6
10:29 6,4 3,2 17,0 NE 26,0 1031,5 80 - 73.8
10:34 6,4 3,2 19,0 NE 24,0 1031,7 80 - 69.6
10:39 6,3 3,1 15,0 NE 18,0 1031,5 80 - 70.7
10:44 6,3 3,1 13,0 NE 17,0 1031,5 80 - 70.7
10:49 6,3 3,1 13,0 NE 17,0 1031,7 80 - 58.2
10:54 6,3 3,1 12,0 ENE 17,0 1031,7 80 - 38.4
10:59 6,2 3,0 12,0 ENE 17,0 1031,5 80 - 49.9
11:04 6,3 3,1 16,0 ENE 24,0 1031,6 80 - 55.1
11:09 6,4 3,2 13,0 ENE 24,0 1031,5 80 - 58.2
11:14 6,4 3,4 13,0 ENE 17,0 1031,5 81 - 61.3
11:19 6,4 3,6 10,0 Est 17,0 1031,7 82 - 42.6
11:24 6,4 3,6 10,0 Est 11,0 1031,7 82 - 53
11:29 6,4 3,6 14,0 NE 20,0 1031,8 82 - 52
11:34 6,4 3,2 14,0 NE 17,0 1031,9 80 - 47.8
11:39 6,4 3,2 13,0 NE 17,0 1031,7 80 - 54.1
11:44 6,4 3,0 14,0 ENE 18,0 1031,8 79 - 56.2
11:49 6,5 3,1 13,0 NE 17,0 1031,8 79 - 68.6
11:54 6,5 3,1 15,0 NE 18,0 1031,7 79 - 68.6
11:59 6,5 2,9 10,0 NE 15,0 1031,9 78 - 65.5
12:04 6,5 2,8 13,0 NE 15,0 1031,8 77 - 53
12:09 6,5 2,8 10,0 ENE 15,0 1031,9 77 - 43.7
12:14 6,5 2,8 13,0 NE 17,0 1031,6 77 - 41.6
12:19 6,5 2,8 12,0 NE 18,0 1031,8 77 - 47.8
12:24 6,5 2,9 16,0 ENE 18,0 1031,8 78 - 63.4
12:29 6,6 3,2 15,0 NE 22,0 1031,8 79 - 71.7
12:34 6,6 3,2 14,0 ENE 22,0 1031,8 79 - 70.7
12:39 6,6 3,2 13,0 ENE 17,0 1031,7 79 - 56.2
12:44 6,6 3,2 16,0 ENE 20,0 1031,7 79 - 56.2
12:49 6,6 3,2 16,0 ENE 20,0 1031,6 79 - 64.5
12:54 6,5 2,9 14,0 NE 18,0 1031,6 78 - 70.7
12:59 6,5 2,9 15,0 NE 18,0 1031,6 78 - 69.6
13:04 6,6 3,1 16,0 ENE 18,0 1031,6 79 - 65.5
13:09 6,6 3,2 14,0 ENE 20,0 1031,7 79 - 53
13:14 6,6 3,2 14,0 ENE 20,0 1031,9 79 - 61.3
13:19 6,6 3,2 12,0 ENE 17,0 1031,7 79 - 62.4
13:24 6,6 3,2 12,0 ENE 17,0 1031,5 79 - 59.2
13:29 6,6 3,4 12,0 ENE 17,0 1031,5 80 - 54.1
13:34 6,6 3,4 13,0 ENE 15,0 1031,5 80 - 59.2
13:39 6,6 3,6 12,0 ENE 17,0 1031,4 81 - 71.7
13:44 6,6 3,6 12,0 Est 17,0 1031,3 81 - 79
13:49 6,6 3,6 13,0 ENE 20,0 1031,4 81 - 68.6
13:54 6,6 3,6 14,0 NE 20,0 1031,4 81 - 58.2
13:59 6,6 3,4 17,0 ENE 24,0 1031,3 80 - 56.2
14:04 6,6 3,3 12,0 NE 24,0 1031,4 80 - 75.9
14:09 6,6 3,4 15,0 NE 20,0 1031,3 80 - 81.1
14:14 6,6 3,2 14,0 NE 18,0 1031,2 79 - 70.7
14:19 6,6 3,4 12,0 ENE 17,0 1031,2 80 - 57.2
14:24 6,6 3,4 13,0 ENE 17,0 1031,1 80 - 58.2
14:29 6,6 3,2 16,0 NE 22,0 1031,2 79 - 62.4
14:34 6,6 3,2 17,0 NE 22,0 1031,1 79 - 71.7
14:39 6,6 3,0 12,0 NE 18,0 1031,1 78 - 76.9
14:44 6,6 3,0 14,0 ENE 18,0 1031,2 78 - 80
14:49 6,7 3,1 14,0 ENE 17,0 1031,0 78 - 62.4
14:54 6,7 3,2 14,0 ENE 18,0 1031,0 79 - 60.3
14:59 6,7 3,3 14,0 ENE 18,0 1031,0 79 - 60.3
par jour Résumé pour Vendredi 21 Jan 2022
Heure Temp. ( °C ) Pt. de rosée ( °C ) Vent ( km/h ) Direction Rafale ( km/h ) Pression baro ( hPa ) Humid.( % ) Intensité ( mm ) Solaire ( W/m2 )
Élevé6,7 3,6 28,0 ENE ( 1836/3008 ) 39,0 1031,9 83 - 81.1
Moyenne6,0 2,6 16,7 ENE #109/180 22,9 1030,6 79 - 50 #75/180
Basse5,5 1,1 10,0   11,0 1029,6 72 -  
par jour Détails du tableau pour Vendredi 21 Jan 2022
Heure Temp. ( °C ) Pt. de rosée ( °C ) Vent ( km/h ) Direction Rafale ( km/h ) Pression baro ( hPa ) Humid.( % ) Intensité ( mm ) Solaire ( W/m2 )
00:04 5,7 2,0 17,0 NE 24,0 1029,8 77 - -
00:09 5,7 1,8 18,0 NE 26,0 1029,7 76 - -
00:14 5,7 1,8 18,0 NE 26,0 1029,7 76 - -
00:19 5,8 1,9 24,0 ENE 30,0 1029,7 76 - -
00:24 5,8 1,9 20,0 NE 33,0 1029,9 76 - -
00:29 5,8 1,9 21,0 NE 30,0 1029,9 76 - -
00:34 5,8 1,9 20,0 NE 28,0 1029,9 76 - -
00:39 5,8 2,1 19,0 NE 26,0 1029,9 77 - -
00:44 5,8 2,1 22,0 NE 28,0 1029,8 77 - -
00:49 5,8 1,9 21,0 ENE 33,0 1029,9 76 - -
00:54 5,8 1,7 19,0 ENE 26,0 1029,9 75 - -
00:59 5,8 1,9 27,0 NE 39,0 1029,8 76 - -
01:04 5,8 1,9 23,0 ENE 33,0 1030,0 76 - -
01:09 5,8 2,1 25,0 ENE 30,0 1029,8 77 - -
01:14 5,9 2,2 28,0 ENE 39,0 1029,9 77 - -
01:19 5,9 2,2 26,0 NE 35,0 1029,9 77 - -
01:24 5,9 2,2 28,0 NE 37,0 1029,9 77 - -
01:29 5,9 2,4 20,0 ENE 30,0 1030,0 78 - -
01:34 5,9 2,4 25,0 ENE 30,0 1029,9 78 - -
01:39 5,9 2,4 22,0 ENE 30,0 1030,0 78 - -
01:44 5,9 2,2 23,0 NE 33,0 1030,1 77 - -
01:49 5,9 2,2 19,0 ENE 26,0 1029,8 77 - -
01:54 5,9 2,4 20,0 ENE 26,0 1029,9 78 - -
01:59 5,8 2,1 22,0 ENE 26,0 1029,7 77 - -
02:04 5,8 1,9 17,0 ENE 30,0 1029,9 76 - -
02:09 5,8 1,9 21,0 ENE 26,0 1029,8 76 - -
02:14 5,8 1,7 18,0 ENE 26,0 1029,8 75 - -
02:19 5,8 1,7 23,0 ENE 28,0 1029,9 75 - -
02:24 5,7 1,4 21,0 ENE 28,0 1029,8 74 - -
02:29 5,7 1,1 22,0 ENE 28,0 1029,8 72 - -
02:34 5,7 1,1 22,0 ENE 30,0 1029,8 72 - -
02:39 5,7 1,1 16,0 NE 24,0 1029,8 72 - -
02:44 5,7 1,2 16,0 ENE 24,0 1029,7 73 - -
02:49 5,7 1,2 18,0 ENE 24,0 1029,8 73 - -
02:54 5,7 1,2 17,0 ENE 22,0 1029,9 73 - -
02:59 5,8 1,5 15,0 ENE 24,0 1029,6 74 - -
03:04 5,8 1,5 18,0 ENE 24,0 1029,8 74 - -
03:09 5,8 1,5 16,0 ENE 22,0 1029,8 74 - -
03:14 5,7 1,4 19,0 ENE 24,0 1029,9 74 - -
03:19 5,7 1,4 22,0 ENE 30,0 1029,9 74 - -
03:24 5,7 1,8 16,0 ENE 24,0 1030,0 76 - -
03:29 5,7 1,8 19,0 NE 26,0 1029,9 76 - -
03:34 5,7 1,8 13,0 ENE 20,0 1029,9 76 - -
03:39 5,7 1,8 16,0 NE 22,0 1029,9 76 - -
03:44 5,7 1,8 13,0 ENE 18,0 1029,8 76 - -
03:49 5,7 1,8 12,0 NE 18,0 1029,9 76 - -
03:54 5,7 1,8 10,0 NE 15,0 1029,7 76 - -
03:59 5,6 1,9 16,0 NE 26,0 1029,7 77 - -
04:04 5,7 1,8 19,0 NE 24,0 1029,8 76 - -
04:09 5,7 1,8 15,0 NE 24,0 1029,7 76 - -
04:14 5,7 2,0 19,0 ENE 24,0 1029,6 77 - -
04:19 5,7 2,0 19,0 ENE 24,0 1029,7 77 - -
04:24 5,7 2,0 16,0 NE 22,0 1029,7 77 - -
04:29 5,7 2,2 18,0 ENE 24,0 1029,6 78 - -
04:34 5,8 2,4 20,0 NE 28,0 1029,7 79 - -
04:39 5,8 2,4 23,0 ENE 28,0 1029,7 79 - -
04:44 5,7 2,7 20,0 ENE 30,0 1029,7 81 - -
04:49 5,7 2,7 21,0 ENE 24,0 1029,7 81 - -
04:54 5,7 2,7 20,0 ENE 22,0 1029,6 81 - -
04:59 5,6 2,4 18,0 NE 24,0 1029,7 80 - -
05:04 5,6 2,4 18,0 ENE 26,0 1029,7 80 - -
05:09 5,6 2,4 13,0 ENE 17,0 1029,8 80 - -
05:14 5,5 2,5 18,0 ENE 24,0 1029,8 81 - -
05:19 5,5 2,7 15,0 NE 20,0 1029,8 82 - -
05:24 5,6 2,7 20,0 NE 24,0 1029,9 82 - -
05:29 5,6 2,6 18,0 NE 24,0 1029,9 81 - -
05:34 5,7 2,5 16,0 NE 20,0 1029,9 80 - -
05:39 5,7 2,5 14,0 ENE 20,0 1029,6 80 - -
05:44 5,7 2,7 14,0 ENE 20,0 1029,7 81 - -
05:49 5,7 2,5 17,0 ENE 22,0 1029,6 80 - -
05:54 5,7 2,5 14,0 ENE 20,0 1029,8 80 - -
05:59 5,7 2,5 13,0 ENE 18,0 1029,8 80 - -
06:04 5,7 2,7 23,0 ENE 30,0 1029,7 81 - -
06:09 5,7 2,7 23,0 ENE 30,0 1029,8 81 - -
06:14 5,7 2,7 15,0 Est 20,0 1029,9 81 - -
06:19 5,6 2,6 15,0 ENE 18,0 1029,8 81 - -
06:24 5,5 2,5 13,0 ENE 17,0 1029,9 81 - -
06:29 5,5 2,5 12,0 ENE 17,0 1029,9 81 - -
06:34 5,5 2,7 12,0 ENE 15,0 1029,9 82 - -
06:39 5,6 2,8 13,0 Est 17,0 1029,9 82 - -
06:44 5,6 2,8 13,0 ENE 15,0 1029,8 82 - -
06:49 5,7 2,9 13,0 ENE 15,0 1030,0 82 - -
06:54 5,7 2,9 13,0 ENE 17,0 1030,1 82 - -
06:59 5,7 3,0 17,0 ENE 20,0 1030,1 83 - -
07:04 5,7 3,0 21,0 NE 26,0 1030,3 83 - -
07:09 5,7 2,9 23,0 NE 30,0 1030,2 82 - -
07:14 5,7 2,9 21,0 ENE 30,0 1030,3 82 - -
07:19 5,7 2,9 20,0 ENE 26,0 1030,4 82 - -
07:24 5,7 2,9 19,0 ENE 26,0 1030,2 82 - -
07:29 5,6 2,8 20,0 ENE 26,0 1030,1 82 - -
07:34 5,6 2,8 27,0 NE 35,0 1030,4 82 - -
07:39 5,6 2,8 26,0 NE 33,0 1030,4 82 - -
07:44 5,6 2,8 24,0 ENE 31,0 1030,4 82 - -
07:49 5,6 2,6 24,0 ENE 39,0 1030,5 81 - -
07:54 5,7 2,8 24,0 ENE 39,0 1030,6 82 - -
07:59 5,7 2,9 13,0 Est 26,0 1030,5 82 - -
08:04 5,7 2,9 17,0 ENE 26,0 1030,7 82 - -
08:09 5,7 2,9 16,0 ENE 24,0 1030,9 82 - -
08:14 5,7 2,9 16,0 ENE 24,0 1030,9 82 - -
08:19 5,6 2,9 13,0 NE 18,0 1030,7 83 - -
08:24 5,6 2,9 15,0 NE 20,0 1030,8 83 - -
08:29 5,6 2,8 15,0 ENE 20,0 1030,9 82 - -
08:34 5,6 2,8 12,0 NE 18,0 1030,9 82 - -
08:39 5,6 2,8 20,0 NE 24,0 1030,9 82 - -
08:44 5,6 2,8 16,0 ENE 24,0 1030,9 82 - -
08:49 5,6 2,8 14,0 ENE 20,0 1031,0 82 - 1
08:54 5,6 2,8 15,0 ENE 22,0 1030,9 82 - 1
08:59 5,7 2,9 14,0 ENE 22,0 1030,9 82 - 2.1
09:04 5,7 2,9 11,0 ENE 18,0 1031,1 82 - 3.1
09:09 5,7 2,9 16,0 ENE 20,0 1031,1 82 - 3.1
09:14 5,7 2,9 17,0 ENE 30,0 1031,1 82 - 4.2
09:19 5,8 2,9 13,0 ENE 18,0 1031,2 82 - 8.3
09:24 5,8 2,8 19,0 NE 24,0 1031,2 81 - 8.3
09:29 5,8 2,8 14,0 NE 17,0 1031,3 81 - 12.5
09:34 5,9 2,9 13,0 NE 17,0 1031,3 81 - 17.6
09:39 5,9 2,9 16,0 ENE 24,0 1031,3 81 - 23.9
09:44 6,0 2,7 17,0 ENE 18,0 1031,3 80 - 27
09:49 6,0 2,6 15,0 ENE 17,0 1031,2 79 - 22.9
09:54 6,0 2,3 14,0 ENE 18,0 1031,4 77 - 17.6
09:59 6,0 2,1 14,0 ENE 20,0 1031,3 76 - 23.9
10:04 6,0 2,3 18,0 ENE 26,0 1031,3 77 - 18.7
10:09 6,1 2,6 17,0 NE 26,0 1031,4 78 - 25
10:14 6,2 2,8 17,0 NE 22,0 1031,3 79 - 40.5
10:19 6,3 2,9 19,0 ENE 28,0 1031,4 79 - 67.6
10:24 6,4 3,2 19,0 NE 28,0 1031,6 80 - 69.6
10:29 6,4 3,2 17,0 NE 26,0 1031,5 80 - 73.8
10:34 6,4 3,2 19,0 NE 24,0 1031,7 80 - 69.6
10:39 6,3 3,1 15,0 NE 18,0 1031,5 80 - 70.7
10:44 6,3 3,1 13,0 NE 17,0 1031,5 80 - 70.7
10:49 6,3 3,1 13,0 NE 17,0 1031,7 80 - 58.2
10:54 6,3 3,1 12,0 ENE 17,0 1031,7 80 - 38.4
10:59 6,2 3,0 12,0 ENE 17,0 1031,5 80 - 49.9
11:04 6,3 3,1 16,0 ENE 24,0 1031,6 80 - 55.1
11:09 6,4 3,2 13,0 ENE 24,0 1031,5 80 - 58.2
11:14 6,4 3,4 13,0 ENE 17,0 1031,5 81 - 61.3
11:19 6,4 3,6 10,0 Est 17,0 1031,7 82 - 42.6
11:24 6,4 3,6 10,0 Est 11,0 1031,7 82 - 53
11:29 6,4 3,6 14,0 NE 20,0 1031,8 82 - 52
11:34 6,4 3,2 14,0 NE 17,0 1031,9 80 - 47.8
11:39 6,4 3,2 13,0 NE 17,0 1031,7 80 - 54.1
11:44 6,4 3,0 14,0 ENE 18,0 1031,8 79 - 56.2
11:49 6,5 3,1 13,0 NE 17,0 1031,8 79 - 68.6
11:54 6,5 3,1 15,0 NE 18,0 1031,7 79 - 68.6
11:59 6,5 2,9 10,0 NE 15,0 1031,9 78 - 65.5
12:04 6,5 2,8 13,0 NE 15,0 1031,8 77 - 53
12:09 6,5 2,8 10,0 ENE 15,0 1031,9 77 - 43.7
12:14 6,5 2,8 13,0 NE 17,0 1031,6 77 - 41.6
12:19 6,5 2,8 12,0 NE 18,0 1031,8 77 - 47.8
12:24 6,5 2,9 16,0 ENE 18,0 1031,8 78 - 63.4
12:29 6,6 3,2 15,0 NE 22,0 1031,8 79 - 71.7
12:34 6,6 3,2 14,0 ENE 22,0 1031,8 79 - 70.7
12:39 6,6 3,2 13,0 ENE 17,0 1031,7 79 - 56.2
12:44 6,6 3,2 16,0 ENE 20,0 1031,7 79 - 56.2
12:49 6,6 3,2 16,0 ENE 20,0 1031,6 79 - 64.5
12:54 6,5 2,9 14,0 NE 18,0 1031,6 78 - 70.7
12:59 6,5 2,9 15,0 NE 18,0 1031,6 78 - 69.6
13:04 6,6 3,1 16,0 ENE 18,0 1031,6 79 - 65.5
13:09 6,6 3,2 14,0 ENE 20,0 1031,7 79 - 53
13:14 6,6 3,2 14,0 ENE 20,0 1031,9 79 - 61.3
13:19 6,6 3,2 12,0 ENE 17,0 1031,7 79 - 62.4
13:24 6,6 3,2 12,0 ENE 17,0 1031,5 79 - 59.2
13:29 6,6 3,4 12,0 ENE 17,0 1031,5 80 - 54.1
13:34 6,6 3,4 13,0 ENE 15,0 1031,5 80 - 59.2
13:39 6,6 3,6 12,0 ENE 17,0 1031,4 81 - 71.7
13:44 6,6 3,6 12,0 Est 17,0 1031,3 81 - 79
13:49 6,6 3,6 13,0 ENE 20,0 1031,4 81 - 68.6
13:54 6,6 3,6 14,0 NE 20,0 1031,4 81 - 58.2
13:59 6,6 3,4 17,0 ENE 24,0 1031,3 80 - 56.2
14:04 6,6 3,3 12,0 NE 24,0 1031,4 80 - 75.9
14:09 6,6 3,4 15,0 NE 20,0 1031,3 80 - 81.1
14:14 6,6 3,2 14,0 NE 18,0 1031,2 79 - 70.7
14:19 6,6 3,4 12,0 ENE 17,0 1031,2 80 - 57.2
14:24 6,6 3,4 13,0 ENE 17,0 1031,1 80 - 58.2
14:29 6,6 3,2 16,0 NE 22,0 1031,2 79 - 62.4
14:34 6,6 3,2 17,0 NE 22,0 1031,1 79 - 71.7
14:39 6,6 3,0 12,0 NE 18,0 1031,1 78 - 76.9
14:44 6,6 3,0 14,0 ENE 18,0 1031,2 78 - 80
14:49 6,7 3,1 14,0 ENE 17,0 1031,0 78 - 62.4
14:54 6,7 3,2 14,0 ENE 18,0 1031,0 79 - 60.3
14:59 6,7 3,3 14,0 ENE 18,0 1031,0 79 - 60.3

Téléchargez votre copie de cet ensemble de données  à partir de WeatherUnderground

Nos données météo stockées sur Weather Underground. Script développé par Jim McMurry. Réécrit pour l'utilisation du modèle Leuven-Template